East Petersburg, Pennsylvania
Current Conditions -  °F | °C
As of 11:53 AM on Monday 22 Dec 2014 (Local Time) from KLNS Reporting Station
Overcast Overcast  
Wind Chill: 35°   Ceiling: 2000
Heat Index: 35°   Visibility: 8mi
Dew Point: 28°   Wind: 3mph
Humidity: 76%   Direction: 110°ESE
Pressure: 30.26"   Gusts: NA
Location:  40.1°N, 76.35°W
Report Text: KLNS 221653Z 11003KT 8SM BKN020 OVC040 02/M02 A3026 RMK AO2 SLP250 T00171022
Loading
Personal Weather Stations






























Interactive Weather Map New forecast layout! Learn more

10-Day Weather Forecast

Advertisements
Track Severe Weather on mobile